Time;durP1;ratioP1;P1;durP2;ratioP2;P2;SDS_P1;SDS_P2;PMS_P1;PMS_P2;Temp;Humidity;BMP_temperature;BMP_pressure;BME280_temperature;BME280_humidity;BME280_pressure;Samples;Min_cycle;Max_cycle;Signal;HPM_P1;HPM_P2
2021/07/21 00:00:38;;;;;;;4.50;2.57;;;;;;;14.25;99.39;101514.97;5033201;28;20512;-72
2021/07/21 00:03:05;;;;;;;5.57;3.20;;;;;;;14.29;99.41;101521.44;5032884;28;20864;-72
2021/07/21 00:05:32;;;;;;;10.00;2.90;;;;;;;14.28;99.46;101514.38;5032873;28;20975;-72
2021/07/21 00:07:59;;;;;;;5.13;3.10;;;;;;;14.27;99.16;101511.97;5033409;28;20434;-72
2021/07/21 00:10:30;;;;;;;3.50;2.73;;;;;;;14.27;98.73;101520.94;5032955;28;20482;-72
2021/07/21 00:15:52;;;;;;;3.37;2.63;;;;;;;14.21;98.56;101511.25;5033226;28;20415;-73
2021/07/21 00:18:21;;;;;;;3.50;1.90;;;;;;;14.10;97.15;101516.09;5032778;28;20469;-72
2021/07/21 00:20:48;;;;;;;3.37;2.23;;;;;;;14.05;96.78;101509.94;5032681;28;20991;-72
2021/07/21 00:23:15;;;;;;;3.57;2.07;;;;;;;14.04;95.94;101513.78;5032836;28;20462;-72
2021/07/21 00:25:41;;;;;;;5.77;3.03;;;;;;;14.00;94.34;101518.19;5033024;28;20826;-72
2021/07/21 00:28:09;;;;;;;4.30;2.40;;;;;;;13.93;95.27;101513.13;5033010;28;20443;-72
2021/07/21 00:30:35;;;;;;;2.33;2.00;;;;;;;13.88;96.90;101513.22;5033007;28;20443;-72
2021/07/21 00:33:02;;;;;;;3.00;2.20;;;;;;;13.84;98.53;101504.03;5032637;28;20986;-72
2021/07/21 00:35:28;;;;;;;3.63;2.30;;;;;;;13.93;98.66;101506.88;5032639;28;20451;-72
2021/07/21 00:37:55;;;;;;;3.10;2.47;;;;;;;13.92;99.01;101508.81;5032955;28;20447;-72
2021/07/21 00:40:21;;;;;;;5.17;2.40;;;;;;;13.94;99.04;101508.50;5032763;28;20487;-72
2021/07/21 00:42:48;;;;;;;4.17;2.73;;;;;;;13.98;98.91;101512.22;5032853;28;20446;-72
2021/07/21 00:45:16;;;;;;;5.33;3.17;;;;;;;13.93;99.40;101515.06;5033011;28;20439;-72
2021/07/21 00:47:42;;;;;;;4.30;2.97;;;;;;;13.97;99.50;101513.34;5032839;28;20446;-73
2021/07/21 00:50:10;;;;;;;5.80;2.57;;;;;;;13.86;99.80;101515.47;5032512;28;20455;-72
2021/07/21 00:52:38;;;;;;;2.87;2.30;;;;;;;13.93;99.39;101512.34;5032508;28;20952;-72
2021/07/21 00:55:06;;;;;;;2.97;2.27;;;;;;;13.94;99.15;101516.66;5032554;28;20440;-72
2021/07/21 00:57:33;;;;;;;5.90;3.77;;;;;;;13.89;99.67;101506.66;5032699;28;20450;-72
2021/07/21 00:59:59;;;;;;;2.73;2.00;;;;;;;13.95;99.24;101513.66;5032551;28;20520;-72
2021/07/21 01:02:27;;;;;;;2.30;1.97;;;;;;;13.85;99.55;101520.06;5032444;28;20608;-72
2021/07/21 01:04:54;;;;;;;2.23;2.03;;;;;;;13.89;99.26;101514.84;5035087;28;20951;-72
2021/07/21 01:07:21;;;;;;;2.87;2.10;;;;;;;13.79;99.74;101506.88;5036242;28;20859;-72
2021/07/21 01:09:48;;;;;;;2.00;1.40;;;;;;;13.76;99.89;101513.69;5037620;28;20479;-71
2021/07/21 01:12:24;;;;;;;4.50;2.57;;;;;;;13.78;99.84;101521.59;5036299;28;20450;-72
2021/07/21 01:15:00;;;;;;;6.53;2.83;;;;;;;13.66;99.81;101515.81;5036171;28;20431;-72
2021/07/21 01:17:34;;;;;;;3.40;2.70;;;;;;;13.76;97.28;101513.69;5035903;28;20477;-72
2021/07/21 01:20:23;;;;;;;3.97;2.10;;;;;;;13.69;95.61;101510.59;5035374;28;20486;-72
2021/07/21 01:22:55;;;;;;;3.17;1.93;;;;;;;13.54;96.23;101516.28;5036021;28;20427;-72
2021/07/21 01:25:27;;;;;;;3.30;2.47;;;;;;;13.51;95.63;101508.72;5035997;28;20434;-70
2021/07/21 01:27:56;;;;;;;3.30;2.37;;;;;;;13.38;97.82;101519.25;5035664;28;20799;-72
2021/07/21 01:30:27;;;;;;;2.70;1.77;;;;;;;13.37;99.14;101505.97;5035405;28;20470;-72
2021/07/21 01:33:07;;;;;;;2.10;1.80;;;;;;;13.51;99.01;101511.44;5035821;28;20439;-72
2021/07/21 01:35:38;;;;;;;3.03;2.27;;;;;;;13.48;99.26;101510.09;5035843;28;20428;-72
2021/07/21 01:38:08;;;;;;;7.03;2.63;;;;;;;13.51;99.56;101517.69;5035668;28;20431;-72
2021/07/21 01:40:41;;;;;;;4.37;2.93;;;;;;;13.50;100.00;101515.25;5034801;28;21039;-72
2021/07/21 01:43:12;;;;;;;2.63;1.97;;;;;;;13.55;99.98;101515.19;5035384;28;20431;-72
2021/07/21 01:45:41;;;;;;;5.53;2.40;;;;;;;13.58;99.49;101515.38;5035651;28;20435;-72
2021/07/21 01:48:09;;;;;;;2.93;2.07;;;;;;;13.58;99.61;101522.72;5035472;28;20497;-72
2021/07/21 01:50:36;;;;;;;2.73;2.37;;;;;;;13.59;99.66;101524.34;5035481;28;20489;-72
2021/07/21 01:53:03;;;;;;;4.43;1.70;;;;;;;13.56;100.00;101523.03;5035167;28;20970;-71
2021/07/21 01:55:30;;;;;;;8.33;2.20;;;;;;;13.59;99.94;101525.19;5035237;28;20462;-71
2021/07/21 01:57:57;;;;;;;3.80;2.90;;;;;;;13.61;100.00;101519.44;5035370;28;20858;-72
2021/07/21 02:00:26;;;;;;;2.23;1.97;;;;;;;13.70;99.90;101525.81;5035163;28;20483;-71
2021/07/21 02:02:55;;;;;;;3.80;2.20;;;;;;;13.74;99.87;101520.56;5035116;28;20821;-72
2021/07/21 02:05:22;;;;;;;2.90;1.77;;;;;;;13.75;99.35;101517.53;5035278;28;20482;-72
2021/07/21 02:07:50;;;;;;;2.70;1.57;;;;;;;13.79;99.27;101513.13;5035287;28;20446;-71
2021/07/21 02:10:19;;;;;;;3.70;2.33;;;;;;;13.69;99.77;101517.94;5034992;28;20470;-72
2021/07/21 02:12:48;;;;;;;4.03;1.83;;;;;;;13.70;100.00;101523.06;5035122;28;20458;-71
2021/07/21 02:15:17;;;;;;;2.83;2.30;;;;;;;13.72;99.13;101522.78;5034799;28;20439;-71
2021/07/21 02:17:46;;;;;;;3.60;2.20;;;;;;;13.66;97.80;101524.78;5034954;28;20462;-72
2021/07/21 02:20:14;;;;;;;3.80;2.43;;;;;;;13.64;97.25;101524.28;5034804;28;20455;-72
2021/07/21 02:22:43;;;;;;;3.93;2.20;;;;;;;13.59;97.34;101522.47;5034994;28;20454;-71
2021/07/21 02:25:21;;;;;;;4.00;1.60;;;;;;;13.50;98.06;101528.84;5034840;28;20497;-72
2021/07/21 02:27:48;;;;;;;3.80;2.10;;;;;;;13.55;98.09;101531.53;5034905;28;20499;-72
2021/07/21 02:30:15;;;;;;;2.40;1.73;;;;;;;13.69;97.98;101531.56;5034751;28;20467;-72
2021/07/21 02:32:51;;;;;;;4.77;2.50;;;;;;;13.77;98.95;101530.88;5034801;28;20443;-72
2021/07/21 02:35:20;;;;;;;5.90;2.50;;;;;;;13.88;99.51;101540.47;5034737;28;20455;-71
2021/07/21 02:37:47;;;;;;;6.30;2.00;;;;;;;13.97;99.93;101538.66;5034628;28;20443;-72
2021/07/21 02:40:15;;;;;;;6.10;2.60;;;;;;;13.99;100.00;101539.19;5034221;28;21007;-72
2021/07/21 02:42:42;;;;;;;3.53;1.30;;;;;;;14.03;100.00;101539.38;5034614;28;20447;-72
2021/07/21 02:45:09;;;;;;;2.00;1.63;;;;;;;14.12;100.00;101537.56;5034610;28;20439;-72
2021/07/21 02:47:35;;;;;;;2.83;2.27;;;;;;;14.22;100.00;101539.31;5034490;28;20489;-71
2021/07/21 02:50:04;;;;;;;4.37;1.87;;;;;;;14.25;100.00;101544.94;5034571;28;20463;-71
2021/07/21 02:52:35;;;;;;;4.23;2.30;;;;;;;14.21;100.00;101545.84;5034337;28;20468;-71
2021/07/21 02:55:07;;;;;;;4.93;2.50;;;;;;;14.15;100.00;101550.59;5033702;28;20842;-72
2021/07/21 02:57:38;;;;;;;2.00;1.40;;;;;;;14.18;100.00;101550.00;5034013;28;20928;-72
2021/07/21 03:00:10;;;;;;;4.43;3.03;;;;;;;14.23;100.00;101549.09;5033951;28;20462;-72
2021/07/21 03:02:38;;;;;;;3.87;2.17;;;;;;;14.28;100.00;101551.72;5034088;28;20506;-72
2021/07/21 03:05:09;;;;;;;2.70;1.90;;;;;;;14.30;100.00;101550.31;5034062;28;20656;-72
2021/07/21 03:07:38;;;;;;;4.87;2.40;;;;;;;14.25;99.08;101547.66;5034069;28;20435;-72
2021/07/21 03:10:07;;;;;;;3.13;2.13;;;;;;;14.32;98.58;101559.00;5033560;28;20471;-72
2021/07/21 03:12:37;;;;;;;3.93;2.67;;;;;;;14.27;98.56;101556.38;5033906;28;20435;-72
2021/07/21 03:15:05;;;;;;;3.40;2.27;;;;;;;14.28;98.18;101555.25;5034006;28;20912;-72
2021/07/21 03:17:36;;;;;;;4.07;2.03;;;;;;;14.31;99.28;101553.84;5034014;28;20450;-72
2021/07/21 03:20:11;;;;;;;2.37;1.33;;;;;;;14.49;99.45;101552.16;5033798;28;20459;-71
2021/07/21 03:22:39;;;;;;;3.03;2.20;;;;;;;14.53;100.00;101553.97;5033776;28;20842;-72
2021/07/21 03:25:08;;;;;;;4.93;2.63;;;;;;;14.50;100.00;101559.22;5033701;28;20462;-72
2021/07/21 03:27:36;;;;;;;5.73;2.83;;;;;;;14.54;100.00;101555.59;5033043;28;20466;-72
2021/07/21 03:30:05;;;;;;;2.60;2.03;;;;;;;14.62;100.00;101563.06;5033619;28;20490;-72
2021/07/21 03:32:32;;;;;;;4.63;2.50;;;;;;;14.66;100.00;101560.53;5033646;28;20450;-72
2021/07/21 03:34:59;;;;;;;5.80;2.73;;;;;;;14.75;100.00;101555.97;5033580;28;20455;-72
2021/07/21 03:37:28;;;;;;;3.03;1.97;;;;;;;14.83;100.00;101558.00;5033546;28;20443;-71
2021/07/21 03:39:57;;;;;;;4.47;1.80;;;;;;;14.88;100.00;101555.16;5032807;28;20525;-72
2021/07/21 03:42:25;;;;;;;4.67;2.40;;;;;;;14.95;100.00;101565.63;5033467;28;20854;-72
2021/07/21 03:44:53;;;;;;;6.77;2.03;;;;;;;14.94;100.00;101560.50;5033462;28;20858;-72
2021/07/21 03:47:20;;;;;;;3.73;2.10;;;;;;;15.02;100.00;101554.31;5033399;28;20443;-71
2021/07/21 03:49:47;;;;;;;2.57;1.83;;;;;;;15.09;100.00;101562.88;5033265;28;20459;-72
2021/07/21 03:52:14;;;;;;;2.73;1.77;;;;;;;15.14;100.00;101565.50;5033068;28;20964;-71
2021/07/21 03:54:43;;;;;;;4.03;2.50;;;;;;;15.18;100.00;101574.66;5033347;28;20474;-72
2021/07/21 03:57:10;;;;;;;3.63;2.70;;;;;;;15.21;100.00;101565.88;5033262;28;20435;-71
2021/07/21 03:59:38;;;;;;;3.27;2.03;;;;;;;15.28;100.00;101571.72;5033280;28;20877;-72
2021/07/21 04:02:06;;;;;;;2.60;1.90;;;;;;;15.26;100.00;101573.13;5033214;28;20483;-71
2021/07/21 04:04:33;;;;;;;3.10;2.00;;;;;;;15.30;100.00;101577.66;5032698;28;20462;-71
2021/07/21 04:07:00;;;;;;;6.00;2.90;;;;;;;15.38;100.00;101579.66;5033261;28;20447;-72
2021/07/21 04:09:28;;;;;;;3.77;2.10;;;;;;;15.45;98.18;101579.25;5032960;28;20486;-72
2021/07/21 04:11:58;;;;;;;6.60;2.33;;;;;;;15.44;97.89;101579.53;5032592;28;20466;-72
2021/07/21 04:14:24;;;;;;;4.23;2.30;;;;;;;15.49;97.44;101590.34;5033056;28;20451;-71
2021/07/21 04:16:53;;;;;;;5.97;2.23;;;;;;;15.47;97.62;101587.94;5033365;28;20501;-72
2021/07/21 04:19:21;;;;;;;5.30;2.43;;;;;;;15.56;98.96;101590.72;5033079;28;20462;-72
2021/07/21 04:21:50;;;;;;;4.73;2.17;;;;;;;15.61;99.84;101594.13;5032668;28;20999;-72
2021/07/21 04:24:17;;;;;;;5.10;1.90;;;;;;;15.70;100.00;101588.78;5033155;28;20443;-71
2021/07/21 04:26:44;;;;;;;2.80;2.10;;;;;;;15.75;100.00;101590.56;5032802;28;20806;-72
2021/07/21 04:29:14;;;;;;;3.60;2.37;;;;;;;15.87;100.00;101599.00;5032761;28;20984;-71
2021/07/21 04:31:43;;;;;;;3.20;1.87;;;;;;;15.89;100.00;101592.13;5032665;28;20932;-72
2021/07/21 04:34:11;;;;;;;4.40;2.83;;;;;;;15.97;100.00;101600.69;5032615;28;20967;-72
2021/07/21 04:36:40;;;;;;;4.73;2.47;;;;;;;16.03;100.00;101605.72;5032969;28;20447;-72
2021/07/21 04:39:06;;;;;;;6.60;2.77;;;;;;;16.09;99.93;101612.66;5036133;28;20462;-72
2021/07/21 04:41:34;;;;;;;3.90;2.07;;;;;;;16.17;99.98;101621.22;5036745;28;20487;-72
2021/07/21 04:44:02;;;;;;;4.60;1.90;;;;;;;16.19;99.52;101614.31;5036721;28;20451;-72
2021/07/21 04:46:32;;;;;;;4.03;1.83;;;;;;;16.21;98.97;101614.81;5036937;28;20885;-72
2021/07/21 04:48:58;;;;;;;5.37;2.70;;;;;;;16.25;99.13;101618.53;5036253;28;21009;-72
2021/07/21 04:51:26;;;;;;;3.90;2.03;;;;;;;16.33;98.92;101620.50;5036642;28;20442;-72
2021/07/21 04:53:59;;;;;;;5.83;2.90;;;;;;;16.39;99.47;101621.19;5036510;28;20451;-72
2021/07/21 04:56:25;;;;;;;3.40;2.03;;;;;;;16.48;99.06;101618.47;5036599;28;20430;-71
2021/07/21 04:58:52;;;;;;;3.83;2.20;;;;;;;16.57;99.04;101628.34;5036074;28;20999;-72
2021/07/21 05:01:18;;;;;;;6.50;2.30;;;;;;;16.60;98.69;101632.34;5036413;28;20502;-72
2021/07/21 05:03:46;;;;;;;7.03;3.10;;;;;;;16.60;98.61;101629.59;5036387;28;20454;-72
2021/07/21 05:06:13;;;;;;;3.43;2.17;;;;;;;16.72;98.26;101638.06;5036298;28;20448;-72
2021/07/21 05:08:39;;;;;;;4.43;2.50;;;;;;;16.80;97.88;101634.56;5036076;28;20478;-72
2021/07/21 05:11:05;;;;;;;5.10;2.47;;;;;;;16.84;97.35;101635.53;5036343;28;20805;-72
2021/07/21 05:13:32;;;;;;;5.43;1.90;;;;;;;16.85;96.39;101634.41;5036268;28;20470;-72
2021/07/21 05:15:59;;;;;;;4.47;2.17;;;;;;;16.87;96.72;101639.59;5036229;28;20477;-72
2021/07/21 05:18:25;;;;;;;3.90;2.30;;;;;;;16.94;96.19;101641.84;5036003;28;21011;-72
2021/07/21 05:20:53;;;;;;;4.80;1.97;;;;;;;16.96;96.11;101647.81;5036298;28;20447;-72
2021/07/21 05:23:20;;;;;;;5.77;2.30;;;;;;;17.05;96.72;101645.91;5035982;28;20487;-72
2021/07/21 05:25:46;;;;;;;2.60;1.70;;;;;;;17.12;97.23;101647.03;5035956;28;20443;-72
2021/07/21 05:28:12;;;;;;;4.80;2.53;;;;;;;17.21;96.78;101654.47;5035953;28;20455;-72
2021/07/21 05:30:39;;;;;;;4.50;2.50;;;;;;;17.30;96.41;101658.81;5034845;28;20960;-73
2021/07/21 05:33:05;;;;;;;4.50;2.43;;;;;;;17.37;96.26;101659.16;5036074;28;20439;-72
2021/07/21 05:35:32;;;;;;;6.40;2.60;;;;;;;17.44;95.75;101657.88;5035545;28;20451;-71
2021/07/21 05:38:00;;;;;;;5.20;2.30;;;;;;;17.54;94.96;101657.56;5035723;28;20446;-71
2021/07/21 05:40:26;;;;;;;5.07;2.40;;;;;;;17.58;94.72;101659.34;5035639;28;20462;-72
2021/07/21 05:42:52;;;;;;;5.67;2.40;;;;;;;17.64;94.21;101659.97;5035634;28;20494;-72
2021/07/21 05:45:19;;;;;;;2.20;1.43;;;;;;;17.64;94.36;101657.25;5035291;28;20843;-71
2021/07/21 05:47:45;;;;;;;2.80;1.80;;;;;;;17.69;93.80;101659.81;5035625;28;20446;-72
2021/07/21 05:50:12;;;;;;;4.33;2.10;;;;;;;17.77;94.00;101658.25;5034841;28;20470;-72
2021/07/21 05:52:39;;;;;;;4.43;2.40;;;;;;;17.81;94.30;101670.97;5035475;28;20443;-71
2021/07/21 05:55:07;;;;;;;4.80;2.33;;;;;;;17.94;94.13;101665.66;5035206;28;20996;-72
2021/07/21 05:57:34;;;;;;;4.40;1.90;;;;;;;18.03;93.82;101663.69;5035440;28;20443;-72
2021/07/21 06:00:00;;;;;;;7.40;3.17;;;;;;;18.02;91.93;101662.09;5035344;28;20517;-72
2021/07/21 06:02:28;;;;;;;5.10;2.70;;;;;;;18.07;92.13;101665.47;5034951;28;21011;-72
2021/07/21 06:04:54;;;;;;;3.70;2.27;;;;;;;18.15;92.45;101674.81;5034885;28;20819;-71
2021/07/21 06:07:20;;;;;;;4.43;2.63;;;;;;;18.24;92.30;101669.28;5035215;28;20455;-72
2021/07/21 06:09:47;;;;;;;4.87;2.10;;;;;;;18.29;92.68;101667.19;5034840;28;20474;-72
2021/07/21 06:12:15;;;;;;;6.17;2.90;;;;;;;18.36;91.48;101672.16;5034794;28;20995;-71
2021/07/21 06:14:41;;;;;;;2.43;1.80;;;;;;;18.35;91.07;101668.63;5034473;28;20467;-72
2021/07/21 06:17:08;;;;;;;5.07;2.60;;;;;;;18.34;90.76;101678.00;5034945;28;20470;-72
2021/07/21 06:19:34;;;;;;;4.50;2.43;;;;;;;18.39;91.15;101672.31;5034987;28;20467;-72
2021/07/21 06:22:01;;;;;;;4.23;2.50;;;;;;;18.43;91.27;101677.97;5034911;28;20479;-72
2021/07/21 06:24:27;;;;;;;4.37;2.87;;;;;;;18.55;91.21;101682.75;5034898;28;20449;-72
2021/07/21 06:26:54;;;;;;;3.53;2.20;;;;;;;18.66;90.49;101684.00;5034846;28;20450;-71
2021/07/21 06:29:22;;;;;;;4.47;2.30;;;;;;;18.76;89.94;101686.41;5034372;28;20838;-72
2021/07/21 06:31:49;;;;;;;4.93;2.40;;;;;;;18.85;89.66;101687.19;5034821;28;20459;-72
2021/07/21 06:34:15;;;;;;;3.47;2.10;;;;;;;18.88;88.54;101689.28;5034736;28;20447;-72
2021/07/21 06:36:42;;;;;;;7.87;2.30;;;;;;;18.99;88.05;101689.72;5034705;28;20443;-72
2021/07/21 06:39:08;;;;;;;2.50;1.60;;;;;;;19.08;88.32;101697.91;5034775;28;20467;-72
2021/07/21 06:41:35;;;;;;;3.40;2.00;;;;;;;19.06;88.17;101697.44;5034289;28;20853;-72
2021/07/21 06:44:01;;;;;;;3.93;2.67;;;;;;;19.19;87.28;101704.63;5034753;28;20435;-72
2021/07/21 06:46:30;;;;;;;3.33;2.40;;;;;;;19.21;86.39;101701.53;5034476;28;20442;-72
2021/07/21 06:48:56;;;;;;;3.37;1.60;;;;;;;19.22;86.67;101706.72;5034445;28;20471;-71
2021/07/21 06:51:23;;;;;;;6.37;2.00;;;;;;;19.31;86.08;101712.16;5034337;28;20451;-71
2021/07/21 06:53:51;;;;;;;3.50;2.13;;;;;;;19.37;85.21;101719.88;5033968;28;20944;-72
2021/07/21 06:56:17;;;;;;;4.60;2.20;;;;;;;19.44;85.74;101721.31;5034297;28;20440;-72
2021/07/21 06:58:44;;;;;;;4.50;2.50;;;;;;;19.36;84.67;101714.72;5034208;28;20470;-72
2021/07/21 07:01:10;;;;;;;6.70;3.00;;;;;;;19.51;85.91;101727.06;5033263;28;20447;-72
2021/07/21 07:03:38;;;;;;;4.13;2.40;;;;;;;19.47;85.74;101726.13;5033467;28;20903;-72
2021/07/21 07:06:05;;;;;;;3.90;2.77;;;;;;;19.53;85.63;101728.34;5034068;28;20444;-72
2021/07/21 07:08:31;;;;;;;6.90;3.00;;;;;;;19.54;85.53;101729.16;5033591;28;21015;-72
2021/07/21 07:10:58;;;;;;;5.13;2.20;;;;;;;19.61;85.20;101733.03;5035388;28;20454;-72
2021/07/21 07:13:24;;;;;;;4.40;2.33;;;;;;;19.73;85.35;101736.97;5033746;28;20940;-72
2021/07/21 07:15:51;;;;;;;3.40;1.70;;;;;;;19.78;83.70;101745.81;5034017;28;20447;-72
2021/07/21 07:18:18;;;;;;;4.23;1.77;;;;;;;19.80;83.85;101743.53;5033916;28;20446;-72
2021/07/21 07:20:47;;;;;;;4.27;2.23;;;;;;;19.97;83.33;101744.56;5033839;28;20833;-72
2021/07/21 07:23:14;;;;;;;4.33;2.13;;;;;;;20.07;82.40;101750.44;5033672;28;20483;-72
2021/07/21 07:25:42;;;;;;;6.27;2.20;;;;;;;20.17;82.79;101749.22;5033796;28;20450;-72
2021/07/21 07:28:09;;;;;;;4.20;1.93;;;;;;;20.26;82.35;101746.38;5033601;28;20812;-72
2021/07/21 07:30:36;;;;;;;4.27;2.60;;;;;;;20.32;81.45;101753.28;5033841;28;20439;-72
2021/07/21 07:33:02;;;;;;;3.27;2.00;;;;;;;20.34;81.59;101746.31;5033618;28;20484;-72
2021/07/21 07:35:29;;;;;;;5.20;2.50;;;;;;;20.31;80.45;101748.91;5033560;28;20450;-72
2021/07/21 07:37:57;;;;;;;4.97;2.13;;;;;;;20.36;80.93;101752.28;5033570;28;20474;-72
2021/07/21 07:40:24;;;;;;;4.30;2.20;;;;;;;20.46;80.09;101753.00;5033345;28;20991;-72
2021/07/21 07:42:50;;;;;;;4.30;2.07;;;;;;;20.49;79.17;101749.59;5033181;28;20842;-72
2021/07/21 07:45:17;;;;;;;4.03;2.50;;;;;;;20.54;80.00;101747.44;5033238;28;20835;-71
2021/07/21 07:47:43;;;;;;;4.37;1.50;;;;;;;20.38;79.04;101744.47;5033489;28;20443;-72
2021/07/21 07:50:13;;;;;;;4.80;2.20;;;;;;;20.38;80.99;101750.00;5033454;28;20458;-72
2021/07/21 07:52:41;;;;;;;5.27;2.27;;;;;;;20.61;79.80;101749.63;5033364;28;20488;-72
2021/07/21 07:55:10;;;;;;;3.73;1.97;;;;;;;20.77;80.46;101756.09;5033329;28;20829;-71
2021/07/21 07:57:37;;;;;;;3.30;2.20;;;;;;;20.79;80.45;101755.75;5033397;28;20860;-72
2021/07/21 08:00:06;;;;;;;3.63;1.90;;;;;;;20.78;77.66;101745.88;5033458;28;20482;-73
2021/07/21 08:02:33;;;;;;;4.40;1.90;;;;;;;20.69;77.70;101753.44;5033128;28;20486;-72
2021/07/21 08:04:59;;;;;;;2.87;1.93;;;;;;;20.73;78.70;101757.13;5033211;28;20442;-72
2021/07/21 08:07:29;;;;;;;4.00;1.90;;;;;;;20.82;77.58;101755.88;5033212;28;20451;-72
2021/07/21 08:09:56;;;;;;;3.73;2.10;;;;;;;20.86;78.53;101756.00;5032821;28;20478;-72
2021/07/21 08:12:23;;;;;;;4.33;2.33;;;;;;;21.04;78.31;101764.84;5033611;28;20451;-72
2021/07/21 08:14:50;;;;;;;2.50;1.80;;;;;;;20.97;77.46;101759.88;5037028;28;20940;-71
2021/07/21 08:17:16;;;;;;;5.87;3.00;;;;;;;21.02;76.83;101767.13;5037308;28;20446;-72
2021/07/21 08:19:43;;;;;;;3.40;2.10;;;;;;;21.11;76.59;101768.63;5037212;28;20471;-72
2021/07/21 08:22:10;;;;;;;3.50;1.50;;;;;;;21.06;75.02;101766.09;5036810;28;21003;-71
2021/07/21 08:24:36;;;;;;;3.10;1.60;;;;;;;21.02;76.30;101761.59;5036844;28;20948;-72
2021/07/21 08:27:03;;;;;;;4.23;2.20;;;;;;;20.99;76.59;101768.63;5037086;28;20443;-72
2021/07/21 08:29:31;;;;;;;3.30;1.70;;;;;;;21.09;76.46;101770.13;5036909;28;20463;-72
2021/07/21 08:31:57;;;;;;;5.13;2.30;;;;;;;21.17;75.83;101780.22;5037003;28;20442;-72
2021/07/21 08:34:24;;;;;;;4.63;2.33;;;;;;;21.31;76.25;101764.19;5036989;28;20446;-73
2021/07/21 08:36:50;;;;;;;3.60;2.07;;;;;;;21.51;75.39;101767.16;5036551;28;20956;-72
2021/07/21 08:39:16;;;;;;;5.53;2.30;;;;;;;21.54;75.31;101775.53;5036519;28;20463;-72
2021/07/21 08:41:44;;;;;;;2.63;1.70;;;;;;;21.50;72.67;101765.53;5036828;28;20450;-72
2021/07/21 08:44:13;;;;;;;8.50;2.23;;;;;;;;;;5036721;28;20494;-73
2021/07/21 08:46:41;;;;;;;3.53;2.37;;;;;;;21.33;75.09;101772.91;5036705;28;20469;-72
2021/07/21 08:49:08;;;;;;;3.53;2.00;;;;;;;21.32;74.45;101770.50;5036666;28;20542;-72
2021/07/21 08:51:36;;;;;;;7.50;2.20;;;;;;;21.29;74.67;101774.69;5036930;28;20431;-73
2021/07/21 08:54:03;;;;;;;4.23;2.00;;;;;;;21.50;74.71;101771.84;5036277;28;20965;-72
2021/07/21 08:56:30;;;;;;;3.27;1.53;;;;;;;21.55;72.58;101774.38;5036835;28;20444;-72
2021/07/21 08:58:56;;;;;;;4.00;2.20;;;;;;;21.58;72.62;101778.41;5036397;28;20466;-71
2021/07/21 09:01:24;;;;;;;3.30;2.30;;;;;;;21.63;73.23;101772.66;5036538;28;20442;-72
2021/07/21 09:03:52;;;;;;;3.17;1.80;;;;;;;21.63;73.53;101772.66;5036444;28;20482;-72
2021/07/21 09:06:19;;;;;;;3.80;1.90;;;;;;;21.71;72.71;101766.22;5036412;28;20458;-72
2021/07/21 09:08:45;;;;;;;3.37;1.93;;;;;;;21.79;72.41;101772.75;5036117;28;20474;-72
2021/07/21 09:11:12;;;;;;;1.97;1.23;;;;;;;21.91;67.08;101765.25;5036279;28;20458;-71
2021/07/21 09:13:39;;;;;;;1.20;0.90;;;;;;;21.93;64.57;101767.66;5036471;28;20853;-72
2021/07/21 09:16:07;;;;;;;1.07;0.80;;;;;;;22.04;65.32;101757.69;5036310;28;20466;-72
2021/07/21 09:18:47;;;;;;;7.23;1.43;;;;;;;22.15;65.07;101758.84;5036166;28;20465;-71
2021/07/21 09:21:17;;;;;;;1.47;0.70;;;;;;;22.01;57.15;101763.94;5036111;28;20423;-72
2021/07/21 09:23:45;;;;;;;2.27;1.20;;;;;;;22.15;63.74;101758.06;5035447;28;20467;-71
2021/07/21 09:26:18;;;;;;;1.70;1.10;;;;;;;22.23;66.32;101759.06;5035431;28;20450;-73
2021/07/21 09:28:45;;;;;;;2.70;1.40;;;;;;;22.32;67.14;101760.53;5035997;28;20509;-72
2021/07/21 09:31:14;;;;;;;2.30;1.27;;;;;;;22.36;61.71;101766.13;5035917;28;20466;-72
2021/07/21 09:33:44;;;;;;;2.20;1.27;;;;;;;22.42;62.28;101762.75;5035863;28;20439;-72
2021/07/21 09:36:20;;;;;;;4.47;1.20;;;;;;;22.57;64.27;101758.41;5035740;28;20442;-71
2021/07/21 09:38:48;;;;;;;6.90;1.27;;;;;;;22.58;59.44;101764.75;5035842;28;20895;-72
2021/07/21 09:41:16;;;;;;;2.07;1.17;;;;;;;22.72;58.48;101761.56;5035793;28;20513;-71
2021/07/21 09:43:43;;;;;;;3.50;1.20;;;;;;;22.76;58.85;101748.66;5035045;28;20491;-72
2021/07/21 09:46:12;;;;;;;2.10;1.50;;;;;;;22.77;59.38;101755.78;5035672;28;20443;-73
2021/07/21 09:48:40;;;;;;;1.37;0.97;;;;;;;22.61;59.80;101759.31;5035512;28;20870;-72
2021/07/21 09:51:07;;;;;;;1.00;0.90;;;;;;;22.59;56.80;101758.88;5035527;28;20455;-73
2021/07/21 09:53:40;;;;;;;0.70;0.63;;;;;;;22.54;57.09;101766.63;5035542;28;20454;-72
2021/07/21 09:56:07;;;;;;;1.27;0.90;;;;;;;22.59;55.87;101763.59;5035534;28;20427;-72
2021/07/21 09:58:35;;;;;;;1.27;0.80;;;;;;;22.46;57.29;101767.59;5035381;28;20470;-72
2021/07/21 10:01:02;;;;;;;1.50;1.20;;;;;;;22.48;58.95;101765.25;5035649;28;20451;-73
2021/07/21 10:03:32;;;;;;;1.60;0.93;;;;;;;22.42;57.95;101757.25;5035297;28;20487;-72
2021/07/21 10:06:04;;;;;;;1.53;0.93;;;;;;;22.41;59.74;101755.63;5035360;28;20463;-72
2021/07/21 10:08:37;;;;;;;2.00;1.03;;;;;;;22.58;59.35;101759.25;5035059;28;20478;-72
2021/07/21 10:11:26;;;;;;;1.53;1.07;;;;;;;22.86;57.90;101762.72;5035157;28;20436;-72
2021/07/21 10:13:55;;;;;;;1.10;0.80;;;;;;;22.99;54.69;101757.16;5035143;28;20420;-72
2021/07/21 10:16:41;;;;;;;2.13;1.00;;;;;;;23.23;55.16;101754.16;5035129;28;20542;-72
2021/07/21 10:19:10;;;;;;;1.47;1.00;;;;;;;23.42;56.65;101748.72;5034075;28;20828;-72
2021/07/21 10:21:39;;;;;;;1.83;1.00;;;;;;;23.69;55.48;101750.91;5035038;28;20435;-72
2021/07/21 10:24:07;;;;;;;1.90;0.63;;;;;;;23.58;54.35;101754.19;5034852;28;20483;-73
2021/07/21 10:26:34;;;;;;;2.07;1.13;;;;;;;23.49;54.51;101752.78;5034953;28;20447;-72
2021/07/21 10:29:02;;;;;;;2.07;0.90;;;;;;;23.44;55.03;101750.31;5034751;28;20471;-72
2021/07/21 10:31:29;;;;;;;1.00;0.90;;;;;;;23.57;56.68;101749.81;5034795;28;20443;-71
2021/07/21 10:33:56;;;;;;;1.37;0.93;;;;;;;23.34;53.53;101754.44;5034464;28;20493;-73
2021/07/21 10:36:23;;;;;;;1.23;0.90;;;;;;;23.40;54.71;101751.03;5034165;28;20964;-71
2021/07/21 10:38:49;;;;;;;1.80;1.03;;;;;;;23.51;54.04;101748.50;5034595;28;20920;-73
2021/07/21 10:41:17;;;;;;;3.10;1.37;;;;;;;23.50;55.38;101744.13;5034663;28;20443;-72
2021/07/21 10:43:47;;;;;;;1.60;1.17;;;;;;;23.63;56.66;101748.38;5034536;28;20487;-72
2021/07/21 10:46:33;;;;;;;1.70;1.13;;;;;;;23.87;55.82;101744.59;5034485;28;20443;-72
2021/07/21 10:49:23;;;;;;;1.37;0.90;;;;;;;24.01;54.32;101746.03;5034441;28;20467;-73
2021/07/21 10:52:31;;;;;;;1.80;0.90;;;;;;;24.16;54.01;101753.44;5027057;28;20459;-72
2021/07/21 10:54:59;;;;;;;1.27;1.00;;;;;;;24.10;53.77;101750.19;5034208;28;20530;-72
2021/07/21 11:00:17;;;;;;;1.43;1.03;;;;;;;23.91;53.94;101739.94;5034095;28;20561;-72
2021/07/21 11:02:45;;;;;;;2.27;1.13;;;;;;;23.65;56.60;101737.00;5034244;28;20442;-71
2021/07/21 11:05:30;;;;;;;3.30;1.07;;;;;;;23.79;55.30;101753.91;5034034;28;20482;-72
2021/07/21 11:07:58;;;;;;;1.47;0.60;;;;;;;23.86;54.05;101756.00;5034198;28;20423;-73
2021/07/21 11:10:38;;;;;;;2.20;1.47;;;;;;;23.87;53.17;101752.88;5033874;28;20498;-73
2021/07/21 11:13:06;;;;;;;1.20;0.80;;;;;;;23.81;53.58;101748.78;5033813;28;20970;-72
2021/07/21 11:15:39;;;;;;;1.43;1.00;;;;;;;23.81;52.29;101753.53;5034037;28;20455;-72
2021/07/21 11:18:37;;;;;;;1.53;0.80;;;;;;;23.75;54.62;101750.25;5034101;28;20443;-73
2021/07/21 11:21:04;;;;;;;4.50;1.00;;;;;;;23.64;54.43;101747.25;5033844;28;20443;-73
2021/07/21 11:23:45;;;;;;;4.23;0.90;;;;;;;23.52;53.27;101755.66;5033783;28;20490;-72
2021/07/21 11:26:41;;;;;;;1.60;0.90;;;;;;;23.44;55.52;101751.09;5033926;28;20434;-72
2021/07/21 11:29:47;;;;;;;1.00;0.87;;;;;;;23.27;56.00;101752.28;5033866;28;20478;-72
2021/07/21 11:32:29;;;;;;;1.63;0.90;;;;;;;23.26;56.75;101755.44;5033822;28;20485;-73
2021/07/21 11:34:56;;;;;;;1.77;0.93;;;;;;;23.20;56.81;101748.56;5033464;28;20427;-72
2021/07/21 11:37:35;;;;;;;1.90;1.23;;;;;;;23.00;57.17;101747.69;5033599;28;20450;-72